Ayr Alva Beach, Queensland

11:37 PM AEST on August 26, 2016 (GMT +1000)
AYR Live Weather | | Change Station

Elev 39 ft 19.58 °S, 147.42 °E | Updated 1 second ago

Clear
Clear
61.8 °F
Feels Like 61.8 °F
N
1.0
Wind Variable Wind from South
Gusts 1.0 mph

Today
High -- | Low -- °F
--% Chance of Precip.
Yesterday
High -- | Low -- °F
Precip. -- in
Pressure 30.06 in
Visibility 6.2 miles
Clouds
Dew Point 50 °F
Humidity 64%
Rainfall in
Snow Depth Not available.
6:23 AM 6:00 PM
Waning Crescent, 34% visible
METAR YBTL 261300Z AUTO 19014KT 9999 // NCD 20/02 Q1018
Pressure 30.06 in
Visibility 6.2 miles
Clouds
Dew Point 50 °F
Humidity 64%
Rainfall in
Snow Depth Not available.
6:23 AM 6:00 PM
Waning Crescent, 34% visible
METAR YBTL 261300Z AUTO 19014KT 9999 // NCD 20/02 Q1018

10-Day Weather Forecast

Almanac

Astronomy

Aug. 26, 2016 Rise Set
Actual Time
Civil Twilight
Nautical Twilight
Astronomical Twilight
Moon
Length of Visible Light
Length of Day
Tomorrow will be .
, % of the Moon is Illuminated

Today's Extremes

Country Highs Country Lows

Community

WunderPhotos

Upload Photos

1,935,084 photos uploaded!

WunderBlog® & News

Nearby

Air Quality

  Air Quality AQ Index Pollutant
Not available.

Snow Depth

Station Depth Elevation

Earthquake Activity

City Distance Mag. Time & Date
Minimum magnitude displayed is 2.5.

Coastal Water Temperatures

Place Temperature

Stations

Nearby Weather Stations

Station Location Temp. Windchill Dew Point Humidity Wind Precip. Elev Updated Type